createdAt,value
2023-04-25T00:00:00.973Z,96066.63
2023-04-25T00:01:04.733Z,96063.66
2023-04-25T00:02:06.292Z,96057.53
2023-04-25T00:03:10.210Z,96057.59
2023-04-25T00:04:12.869Z,96055.69
2023-04-25T00:05:16.472Z,96060.72
2023-04-25T00:06:18.824Z,96064.63
2023-04-25T00:07:20.463Z,96060.72
2023-04-25T00:08:22.051Z,96055.75
2023-04-25T00:09:23.614Z,96053.13
2023-04-25T00:10:25.324Z,96052.34
2023-04-25T00:11:26.933Z,96053.56
2023-04-25T00:12:29.703Z,96052.81
2023-04-25T00:13:31.274Z,96047.09
2023-04-25T00:14:35.395Z,96041.72
2023-04-25T00:15:38.726Z,96050.22
2023-04-25T00:16:42.292Z,96049.47
2023-04-25T00:17:44.052Z,96047.97
2023-04-25T00:18:47.700Z,96039.47
2023-04-25T00:19:49.381Z,96039.47
2023-04-25T00:20:51.004Z,96043.38
2023-04-25T00:21:52.669Z,96042.59
2023-04-25T00:22:54.501Z,96039.53
2023-04-25T00:23:56.932Z,96033.31
2023-04-25T00:25:01.123Z,96037.56
2023-04-25T00:26:03.410Z,96043.38
2023-04-25T00:27:04.960Z,96030.94
2023-04-25T00:28:06.572Z,96039.75
2023-04-25T00:29:08.074Z,96040.19
2023-04-25T00:30:10.121Z,96036.34
2023-04-25T00:31:11.711Z,96037.09
2023-04-25T00:32:13.311Z,96036.72
2023-04-25T00:33:14.895Z,96026.34
2023-04-25T00:34:16.476Z,96030.16
2023-04-25T00:35:18.052Z,96031.31
2023-04-25T00:36:19.715Z,96036.72
2023-04-25T00:37:21.295Z,96032.88
2023-04-25T00:38:22.965Z,96027.06
2023-04-25T00:39:24.511Z,96023.22
2023-04-25T00:40:26.468Z,96025.13
2023-04-25T00:41:28.268Z,96017.03
2023-04-25T00:42:30.908Z,96026.19
2023-04-25T00:43:33.524Z,96018.50
2023-04-25T00:44:36.494Z,96022.38
2023-04-25T00:45:40.815Z,96021.66
2023-04-25T00:46:43.228Z,96027.06
2023-04-25T00:47:46.537Z,96022.84
2023-04-25T00:48:48.214Z,96020.16
2023-04-25T00:49:49.759Z,96030.22
2023-04-25T00:50:56.204Z,96020.22
2023-04-25T00:51:57.881Z,96027.19
2023-04-25T00:52:59.554Z,96027.19
2023-04-25T00:54:02.506Z,96024.13
2023-04-25T00:55:04.647Z,96031.03
2023-04-25T00:56:06.972Z,96028.28
2023-04-25T00:57:08.645Z,96024.78
2023-04-25T00:58:10.250Z,96026.59
2023-04-25T00:59:12.107Z,96031.53
2023-04-25T01:00:15.467Z,96029.16
2023-04-25T01:01:17.601Z,96026.81
2023-04-25T01:02:20.788Z,96032.25
2023-04-25T01:03:22.896Z,96028.38
2023-04-25T01:04:24.806Z,96029.84
2023-04-25T01:05:26.480Z,96024.34
2023-04-25T01:06:28.556Z,96026.09
2023-04-25T01:07:30.386Z,96022.53
2023-04-25T01:08:32.429Z,96024.44
2023-04-25T01:09:34.326Z,96020.56
2023-04-25T01:10:36.237Z,96027.78
2023-04-25T01:11:37.844Z,96018.16
2023-04-25T01:12:39.861Z,96026.97
2023-04-25T01:13:41.460Z,96025.69
2023-04-25T01:14:42.999Z,96021.38
2023-04-25T01:15:44.945Z,96017.13
2023-04-25T01:16:46.566Z,96015.91
2023-04-25T01:17:50.386Z,96013.50
2023-04-25T01:18:52.418Z,96008.09
2023-04-25T01:19:54.333Z,96009.66
2023-04-25T01:20:56.687Z,96011.91
2023-04-25T01:21:58.413Z,96002.56
2023-04-25T01:23:00.923Z,95996.41
2023-04-25T01:24:03.254Z,95994.81
2023-04-25T01:25:05.522Z,95990.94
2023-04-25T01:26:11.558Z,95994.78
2023-04-25T01:27:13.180Z,95990.16
2023-04-25T01:28:14.960Z,96002.47
2023-04-25T01:29:18.948Z,95997.09
2023-04-25T01:30:20.813Z,95997.50
2023-04-25T01:31:22.630Z,96000.16
2023-04-25T01:32:24.839Z,95993.25
2023-04-25T01:33:26.480Z,95991.34
2023-04-25T01:34:28.162Z,95991.81
2023-04-25T01:35:29.891Z,95990.69
2023-04-25T01:36:32.317Z,95991.13
2023-04-25T01:37:33.921Z,95987.22
2023-04-25T01:38:36.312Z,95988.00
2023-04-25T01:39:37.875Z,95983.41
2023-04-25T01:40:41.477Z,95985.75
2023-04-25T01:41:44.082Z,95983.84
2023-04-25T01:42:46.500Z,95982.31
2023-04-25T01:43:48.706Z,95987.34
2023-04-25T01:44:50.456Z,95988.03
2023-04-25T01:45:52.596Z,95983.44
2023-04-25T01:46:54.980Z,95986.50
2023-04-25T01:48:00.301Z,95990.34
2023-04-25T01:49:02.534Z,95986.41
2023-04-25T01:50:05.734Z,95989.91
2023-04-25T01:51:07.480Z,95979.47
2023-04-25T01:52:09.099Z,95984.91
2023-04-25T01:53:13.046Z,95986.47
2023-04-25T01:54:14.783Z,95978.13
2023-04-25T01:55:16.566Z,95980.09
2023-04-25T01:56:19.455Z,95981.34
2023-04-25T01:57:21.270Z,95981.47
2023-04-25T01:58:22.841Z,95983.47
2023-04-25T01:59:24.502Z,95980.50
2023-04-25T02:00:26.211Z,95982.09
2023-04-25T02:01:27.800Z,95985.41
2023-04-25T02:02:29.857Z,95978.38
2023-04-25T02:03:33.265Z,95979.84
2023-04-25T02:04:35.068Z,95974.53
2023-04-25T02:05:37.918Z,95963.44
2023-04-25T02:06:39.458Z,95973.06
2023-04-25T02:07:41.027Z,95970.78
2023-04-25T02:08:42.542Z,95968.09
2023-04-25T02:09:44.120Z,95963.72
2023-04-25T02:10:45.705Z,95966.00
2023-04-25T02:11:47.249Z,95959.03
2023-04-25T02:12:48.872Z,95962.91
2023-04-25T02:13:50.809Z,95959.78
2023-04-25T02:14:52.589Z,95959.69
2023-04-25T02:15:54.217Z,95958.09
2023-04-25T02:16:55.935Z,95956.19
2023-04-25T02:17:58.926Z,95949.78
2023-04-25T02:19:01.192Z,95955.84
2023-04-25T02:20:02.968Z,95955.09
2023-04-25T02:21:04.643Z,95948.91
2023-04-25T02:22:06.246Z,95954.28
2023-04-25T02:23:07.797Z,95950.38
2023-04-25T02:24:09.834Z,95946.56
2023-04-25T02:25:12.602Z,95948.91
2023-04-25T02:26:14.429Z,95948.88
2023-04-25T02:27:16.258Z,95947.69
2023-04-25T02:28:17.856Z,95948.75
2023-04-25T02:29:19.388Z,95945.63
2023-04-25T02:30:21.231Z,95946.69
2023-04-25T02:31:22.826Z,95952.47
2023-04-25T02:32:24.515Z,95948.72
2023-04-25T02:33:26.054Z,95950.34
2023-04-25T02:34:27.620Z,95943.47
2023-04-25T02:35:29.205Z,95955.31
2023-04-25T02:36:33.310Z,95955.25
2023-04-25T02:37:36.640Z,95947.16
2023-04-25T02:38:38.348Z,95949.44
2023-04-25T02:39:39.964Z,95945.53
2023-04-25T02:40:41.768Z,95944.72
2023-04-25T02:41:43.386Z,95945.53
2023-04-25T02:42:47.047Z,95943.22
2023-04-25T02:43:49.044Z,95942.84
2023-04-25T02:44:50.896Z,95945.06
2023-04-25T02:45:52.573Z,95940.41
2023-04-25T02:46:54.566Z,95943.88
2023-04-25T02:47:56.227Z,95949.25
2023-04-25T02:48:57.772Z,95948.41
2023-04-25T02:49:59.333Z,95946.84
2023-04-25T02:51:00.938Z,95941.06
2023-04-25T02:52:02.578Z,95948.28
2023-04-25T02:53:04.097Z,95945.19
2023-04-25T02:54:06.071Z,95948.22
2023-04-25T02:55:08.025Z,95948.22
2023-04-25T02:56:09.630Z,95949.03
2023-04-25T02:57:11.175Z,95947.53
2023-04-25T02:58:12.724Z,95947.13
2023-04-25T02:59:14.282Z,95952.19
2023-04-25T03:00:15.983Z,95950.31
2023-04-25T03:01:17.669Z,95956.34
2023-04-25T03:02:19.305Z,95958.97
2023-04-25T03:03:22.946Z,95956.66
2023-04-25T03:04:27.973Z,95960.06
2023-04-25T03:05:29.509Z,95959.69
2023-04-25T03:06:31.945Z,95959.69
2023-04-25T03:07:33.541Z,95959.34
2023-04-25T03:08:35.453Z,95956.69
2023-04-25T03:09:37.054Z,95958.66
2023-04-25T03:10:39.384Z,95957.53
2023-04-25T03:11:40.984Z,95955.16
2023-04-25T03:12:42.527Z,95953.28
2023-04-25T03:13:44.080Z,95960.59
2023-04-25T03:14:45.649Z,95959.88
2023-04-25T03:15:47.204Z,95960.59
2023-04-25T03:16:48.795Z,95957.47
2023-04-25T03:17:50.419Z,95953.97
2023-04-25T03:18:51.983Z,95953.19
2023-04-25T03:19:53.476Z,95949.69
2023-04-25T03:20:55.347Z,95955.81
2023-04-25T03:21:56.944Z,95951.09
2023-04-25T03:22:58.517Z,95949.50
2023-04-25T03:24:01.513Z,95950.63
2023-04-25T03:25:03.754Z,95954.41
2023-04-25T03:26:05.328Z,95953.22
2023-04-25T03:27:07.178Z,95949.72
2023-04-25T03:28:08.712Z,95956.22
2023-04-25T03:29:10.405Z,95956.66
2023-04-25T03:30:12.576Z,95952.50
2023-04-25T03:31:14.109Z,95954.88
2023-04-25T03:32:15.908Z,95956.50
2023-04-25T03:33:17.515Z,95962.00
2023-04-25T03:34:19.089Z,95961.25
2023-04-25T03:35:21.352Z,95964.31
2023-04-25T03:36:22.910Z,95962.75
2023-04-25T03:37:24.557Z,95964.25
2023-04-25T03:38:26.300Z,95960.78
2023-04-25T03:39:27.941Z,95961.19
2023-04-25T03:40:29.534Z,95962.81
2023-04-25T03:41:31.139Z,95963.25
2023-04-25T03:42:32.707Z,95957.47
2023-04-25T03:43:34.503Z,95955.41
2023-04-25T03:44:36.037Z,95952.25
2023-04-25T03:45:37.599Z,95954.56
2023-04-25T03:46:39.148Z,95949.50
2023-04-25T03:47:40.791Z,95956.31
2023-04-25T03:48:42.406Z,95949.00
2023-04-25T03:49:44.068Z,95952.41
2023-04-25T03:50:45.792Z,95952.41
2023-04-25T03:51:47.328Z,95948.59
2023-04-25T03:52:48.894Z,95956.66
2023-04-25T03:53:50.767Z,95955.50
2023-04-25T03:54:52.504Z,95957.88
2023-04-25T03:55:54.052Z,95952.50
2023-04-25T03:56:55.661Z,95953.28
2023-04-25T03:57:59.011Z,95959.44
2023-04-25T03:59:00.573Z,95959.44
2023-04-25T04:00:02.448Z,95962.44
2023-04-25T04:01:08.307Z,95953.53
2023-04-25T04:02:10.014Z,95957.69
2023-04-25T04:03:12.300Z,95957.31
2023-04-25T04:04:14.288Z,95966.16
2023-04-25T04:05:16.239Z,95956.22
2023-04-25T04:06:17.970Z,95956.19
2023-04-25T04:07:19.585Z,95955.81
2023-04-25T04:08:21.127Z,95957.78
2023-04-25T04:09:22.975Z,95957.81
2023-04-25T04:10:24.602Z,95957.88
2023-04-25T04:11:26.412Z,95954.06
2023-04-25T04:12:28.033Z,95955.91
2023-04-25T04:13:30.081Z,95960.97
2023-04-25T04:14:31.644Z,95956.44
2023-04-25T04:15:34.043Z,95964.50
2023-04-25T04:16:35.940Z,95962.47
2023-04-25T04:17:37.774Z,95958.28
2023-04-25T04:18:39.485Z,95963.41
2023-04-25T04:19:41.145Z,95956.91
2023-04-25T04:20:42.684Z,95963.78
2023-04-25T04:21:44.209Z,95961.88
2023-04-25T04:22:45.754Z,95963.03
2023-04-25T04:23:47.780Z,95962.00
2023-04-25T04:24:51.009Z,95963.59
2023-04-25T04:25:53.217Z,95962.38
2023-04-25T04:26:54.771Z,95962.66
2023-04-25T04:27:56.503Z,95959.19
2023-04-25T04:29:00.340Z,95966.44
2023-04-25T04:30:02.784Z,95964.50
2023-04-25T04:31:05.021Z,95960.72
2023-04-25T04:32:06.749Z,95964.56
2023-04-25T04:33:08.548Z,95967.69
2023-04-25T04:34:10.584Z,95972.78
2023-04-25T04:35:12.163Z,95969.00
2023-04-25T04:36:14.029Z,95962.84
2023-04-25T04:37:15.840Z,95964.41
2023-04-25T04:38:17.440Z,95970.59
2023-04-25T04:39:19.022Z,95975.19
2023-04-25T04:40:21.546Z,95966.72
2023-04-25T04:41:23.486Z,95972.09
2023-04-25T04:42:25.277Z,95965.50
2023-04-25T04:43:27.009Z,95965.13
2023-04-25T04:44:29.579Z,95974.31
2023-04-25T04:45:31.231Z,95970.38
2023-04-25T04:46:32.980Z,95973.38
2023-04-25T04:47:35.000Z,95974.19
2023-04-25T04:48:36.676Z,95966.56
2023-04-25T04:49:38.219Z,95970.75
2023-04-25T04:50:39.933Z,95968.47
2023-04-25T04:51:48.012Z,95965.00
2023-04-25T04:52:50.141Z,95962.69
2023-04-25T04:53:52.118Z,95966.94
2023-04-25T04:54:55.165Z,95967.41
2023-04-25T04:55:57.646Z,95970.19
2023-04-25T04:56:59.967Z,95975.97
2023-04-25T04:58:04.704Z,95973.34
2023-04-25T04:59:07.861Z,95966.75
2023-04-25T05:00:12.196Z,95959.78
2023-04-25T05:01:14.552Z,95958.88
2023-04-25T05:02:16.406Z,95961.19
2023-04-25T05:03:18.096Z,95957.28
2023-04-25T05:04:19.859Z,95958.06
2023-04-25T05:05:21.621Z,95958.81
2023-04-25T05:06:23.182Z,95963.34
2023-04-25T05:07:24.732Z,95957.91
2023-04-25T05:08:26.407Z,95960.25
2023-04-25T05:09:28.429Z,95960.34
2023-04-25T05:10:33.134Z,95964.34
2023-04-25T05:11:34.713Z,95963.72
2023-04-25T05:12:37.349Z,95970.78
2023-04-25T05:13:39.049Z,95976.28
2023-04-25T05:14:40.668Z,95961.00
2023-04-25T05:15:42.222Z,95965.69
2023-04-25T05:16:44.081Z,95965.25
2023-04-25T05:17:45.836Z,95964.94
2023-04-25T05:18:49.377Z,95966.56
2023-04-25T05:19:50.965Z,95967.75
2023-04-25T05:20:52.796Z,95972.75
2023-04-25T05:21:54.402Z,95965.81
2023-04-25T05:22:56.109Z,95966.13
2023-04-25T05:23:57.808Z,95966.13
2023-04-25T05:24:59.415Z,95964.13
2023-04-25T05:26:01.139Z,95966.00
2023-04-25T05:27:03.354Z,95973.00
2023-04-25T05:28:06.022Z,95971.19
2023-04-25T05:29:07.572Z,95974.41
2023-04-25T05:30:10.588Z,95974.88
2023-04-25T05:31:12.210Z,95968.84
2023-04-25T05:32:13.870Z,95973.94
2023-04-25T05:33:16.328Z,95977.84
2023-04-25T05:34:17.941Z,95974.72
2023-04-25T05:35:19.625Z,95971.31
2023-04-25T05:36:21.234Z,95971.25
2023-04-25T05:37:22.808Z,95962.28
2023-04-25T05:38:24.350Z,95971.47
2023-04-25T05:39:25.890Z,95972.16
2023-04-25T05:40:27.529Z,95963.56
2023-04-25T05:41:29.075Z,95965.16
2023-04-25T05:42:30.624Z,95965.06
2023-04-25T05:43:32.195Z,95969.66
2023-04-25T05:44:33.772Z,95958.88
2023-04-25T05:45:35.494Z,95966.31
2023-04-25T05:46:37.311Z,95955.63
2023-04-25T05:47:38.883Z,95965.38
2023-04-25T05:48:40.756Z,95956.22
2023-04-25T05:49:42.315Z,95967.41
2023-04-25T05:50:44.221Z,95963.13
2023-04-25T05:51:45.793Z,95963.16
2023-04-25T05:52:47.330Z,95970.16
2023-04-25T05:53:49.113Z,95971.84
2023-04-25T05:54:50.829Z,95967.94
2023-04-25T05:55:52.348Z,95972.38
2023-04-25T05:56:54.261Z,95963.13
2023-04-25T05:57:55.805Z,95969.22
2023-04-25T05:58:57.404Z,95961.59
2023-04-25T05:59:59.012Z,95963.19
2023-04-25T06:01:00.589Z,95957.75
2023-04-25T06:02:02.313Z,95962.28
2023-04-25T06:03:04.625Z,95963.13
2023-04-25T06:04:06.510Z,95965.84
2023-04-25T06:05:09.292Z,95972.03
2023-04-25T06:06:11.129Z,95971.66
2023-04-25T06:07:12.742Z,95967.84
2023-04-25T06:08:14.255Z,95971.00
2023-04-25T06:09:15.769Z,95962.66
2023-04-25T06:10:17.273Z,95964.66
2023-04-25T06:11:18.864Z,95956.53
2023-04-25T06:12:20.745Z,95959.53
2023-04-25T06:13:22.298Z,95964.03
2023-04-25T06:14:23.916Z,95969.13
2023-04-25T06:15:28.637Z,95971.94
2023-04-25T06:16:30.622Z,95965.69
2023-04-25T06:17:32.221Z,95967.25
2023-04-25T06:18:34.307Z,95965.34
2023-04-25T06:19:36.924Z,95966.44
2023-04-25T06:20:38.460Z,95968.28
2023-04-25T06:21:39.988Z,95967.84
2023-04-25T06:22:41.624Z,95964.03
2023-04-25T06:23:43.190Z,95965.50
2023-04-25T06:24:44.804Z,95966.28
2023-04-25T06:25:46.603Z,95970.91
2023-04-25T06:26:48.596Z,95961.69
2023-04-25T06:27:50.291Z,95966.34
2023-04-25T06:28:51.822Z,95964.13
2023-04-25T06:29:53.746Z,95955.00
2023-04-25T06:30:55.313Z,95961.25
2023-04-25T06:31:58.097Z,95955.16
2023-04-25T06:32:59.684Z,95962.81
2023-04-25T06:34:01.456Z,95955.94
2023-04-25T06:35:04.335Z,95964.53
2023-04-25T06:36:06.102Z,95959.56
2023-04-25T06:37:07.636Z,95958.47
2023-04-25T06:38:10.042Z,95958.94
2023-04-25T06:39:12.088Z,95959.38
2023-04-25T06:40:13.999Z,95960.94
2023-04-25T06:41:15.605Z,95958.66
2023-04-25T06:42:17.187Z,95957.16
2023-04-25T06:43:18.767Z,95955.63
2023-04-25T06:44:20.295Z,95956.44
2023-04-25T06:45:21.895Z,95955.72
2023-04-25T06:46:23.502Z,95959.56
2023-04-25T06:47:25.357Z,95955.72
2023-04-25T06:48:28.247Z,95954.56
2023-04-25T06:49:29.828Z,95951.84
2023-04-25T06:50:31.727Z,95951.06
2023-04-25T06:51:33.319Z,95954.16
2023-04-25T06:52:34.876Z,95949.47
2023-04-25T06:53:36.559Z,95945.13
2023-04-25T06:54:38.138Z,95946.28
2023-04-25T06:55:39.785Z,95940.09
2023-04-25T06:56:41.550Z,95944.34
2023-04-25T06:57:43.081Z,95938.94
2023-04-25T06:58:45.010Z,95940.91
2023-04-25T06:59:46.890Z,95937.09
2023-04-25T07:00:48.492Z,95939.41
2023-04-25T07:01:50.049Z,95943.25
2023-04-25T07:02:52.220Z,95937.91
2023-04-25T07:03:53.971Z,95947.59
2023-04-25T07:04:57.275Z,95943.69
2023-04-25T07:05:58.914Z,95950.22
2023-04-25T07:07:02.001Z,95946.69
2023-04-25T07:08:04.117Z,95942.41
2023-04-25T07:09:06.449Z,95946.25
2023-04-25T07:10:08.171Z,95940.88
2023-04-25T07:11:10.054Z,95945.50
2023-04-25T07:12:11.668Z,95948.88
2023-04-25T07:13:13.252Z,95950.22
2023-04-25T07:14:14.809Z,95940.75
2023-04-25T07:15:16.353Z,95946.44
2023-04-25T07:16:17.878Z,95946.31
2023-04-25T07:17:19.463Z,95937.00
2023-04-25T07:18:21.060Z,95945.38
2023-04-25T07:19:22.637Z,95940.03
2023-04-25T07:20:24.201Z,95937.13
2023-04-25T07:21:26.454Z,95941.50
2023-04-25T07:22:28.334Z,95935.94
2023-04-25T07:23:29.911Z,95940.56
2023-04-25T07:24:31.452Z,95935.22
2023-04-25T07:25:33.052Z,95936.41
2023-04-25T07:26:34.596Z,95936.47
2023-04-25T07:27:36.205Z,95932.41
2023-04-25T07:28:37.750Z,95929.97
2023-04-25T07:29:39.370Z,95928.13
2023-04-25T07:30:40.894Z,95924.44
2023-04-25T07:31:42.709Z,95922.78
2023-04-25T07:32:44.324Z,95913.56
2023-04-25T07:33:46.822Z,95926.94
2023-04-25T07:34:48.481Z,95919.28
2023-04-25T07:35:50.167Z,95925.38
2023-04-25T07:36:51.779Z,95924.28
2023-04-25T07:37:53.310Z,95924.38
2023-04-25T07:38:54.861Z,95930.66
2023-04-25T07:39:56.428Z,95926.22
2023-04-25T07:40:57.958Z,95921.41
2023-04-25T07:41:59.591Z,95918.22
2023-04-25T07:43:01.168Z,95917.00
2023-04-25T07:44:02.693Z,95922.94
2023-04-25T07:45:04.476Z,95919.09
2023-04-25T07:46:06.162Z,95915.06
2023-04-25T07:47:08.549Z,95914.84
2023-04-25T07:48:10.300Z,95916.88
2023-04-25T07:49:11.909Z,95918.81
2023-04-25T07:50:13.530Z,95917.69
2023-04-25T07:51:15.114Z,95918.19
2023-04-25T07:52:16.803Z,95920.88
2023-04-25T07:53:19.283Z,95912.56
2023-04-25T07:54:21.083Z,95915.63
2023-04-25T07:55:22.870Z,95917.41
2023-04-25T07:56:24.418Z,95910.19
2023-04-25T07:57:26.233Z,95918.06
2023-04-25T07:58:27.789Z,95920.25
2023-04-25T07:59:30.309Z,95918.84
2023-04-25T08:00:32.379Z,95912.38
2023-04-25T08:01:35.148Z,95911.44
2023-04-25T08:02:37.512Z,95907.78
2023-04-25T08:03:39.361Z,95907.66
2023-04-25T08:04:41.723Z,95910.44
2023-04-25T08:05:43.723Z,95910.19
2023-04-25T08:06:46.549Z,95904.22
2023-04-25T08:07:48.218Z,95900.66
2023-04-25T08:08:49.929Z,95898.81
2023-04-25T08:09:51.656Z,95899.94
2023-04-25T08:10:53.530Z,95898.25
2023-04-25T08:11:55.124Z,95897.94
2023-04-25T08:12:56.729Z,95898.06
2023-04-25T08:13:58.307Z,95896.84
2023-04-25T08:14:59.835Z,95892.13
2023-04-25T08:16:01.521Z,95889.38
2023-04-25T08:17:06.763Z,95896.75
2023-04-25T08:18:08.541Z,95895.47
2023-04-25T08:19:11.988Z,95891.19
2023-04-25T08:20:13.827Z,95895.78
2023-04-25T08:21:16.376Z,95902.06
2023-04-25T08:22:17.917Z,95891.97
2023-04-25T08:23:19.463Z,95894.91
2023-04-25T08:24:20.990Z,95893.78
2023-04-25T08:25:22.514Z,95899.50
2023-04-25T08:26:24.097Z,95897.00
2023-04-25T08:27:25.747Z,95895.50
2023-04-25T08:28:27.295Z,95896.25
2023-04-25T08:29:29.616Z,95897.94
2023-04-25T08:30:31.269Z,95887.88
2023-04-25T08:31:32.888Z,95890.59
2023-04-25T08:32:34.894Z,95893.09
2023-04-25T08:33:36.798Z,95886.03
2023-04-25T08:34:40.491Z,95890.59
2023-04-25T08:35:42.072Z,95883.13
2023-04-25T08:36:43.644Z,95879.47
2023-04-25T08:37:45.221Z,95887.66
2023-04-25T08:38:46.843Z,95888.81
2023-04-25T08:39:53.448Z,95876.53
2023-04-25T08:40:56.506Z,95885.16
2023-04-25T08:41:58.181Z,95883.03
2023-04-25T08:43:01.661Z,95886.59
2023-04-25T08:44:04.453Z,95884.34
2023-04-25T08:45:07.323Z,95885.13
2023-04-25T08:46:11.268Z,95884.94
2023-04-25T08:47:13.435Z,95876.38
2023-04-25T08:48:18.101Z,95875.44
2023-04-25T08:49:20.155Z,95877.47
2023-04-25T08:50:23.846Z,95882.41
2023-04-25T08:51:29.008Z,95875.69
2023-04-25T08:52:37.414Z,95875.91
2023-04-25T08:53:43.774Z,95865.47
2023-04-25T08:54:50.036Z,95874.84
2023-04-25T08:55:53.742Z,95868.97
2023-04-25T08:56:58.511Z,95864.41
2023-04-25T08:58:01.781Z,95864.88
2023-04-25T08:59:03.915Z,95869.59
2023-04-25T09:00:06.430Z,95868.41
2023-04-25T09:01:08.166Z,95860.59
2023-04-25T09:02:11.210Z,95871.81
2023-04-25T09:03:13.348Z,95870.22
2023-04-25T09:04:16.210Z,95868.59
2023-04-25T09:05:20.196Z,95873.06
2023-04-25T09:06:24.593Z,95865.03
2023-04-25T09:07:26.836Z,95863.25
2023-04-25T09:08:28.470Z,95867.72
2023-04-25T09:09:30.610Z,95861.53
2023-04-25T09:11:38.881Z,95851.25
2023-04-25T09:12:40.526Z,95854.34
2023-04-25T09:13:42.464Z,95852.78
2023-04-25T09:14:44.847Z,95848.72
2023-04-25T09:15:54.585Z,95844.81
2023-04-25T09:17:00.599Z,95841.56
2023-04-25T09:18:02.603Z,95845.34
2023-04-25T09:19:04.212Z,95845.47
2023-04-25T09:20:11.540Z,95847.59
2023-04-25T09:21:14.989Z,95845.00
2023-04-25T09:22:19.564Z,95837.91
2023-04-25T09:23:24.777Z,95843.41
2023-04-25T09:24:33.241Z,95829.69
2023-04-25T09:25:39.805Z,95835.13
2023-04-25T09:26:41.465Z,95831.69
2023-04-25T09:27:53.346Z,95826.88
2023-04-25T09:29:08.351Z,95823.97
2023-04-25T09:30:10.279Z,95814.53
2023-04-25T09:31:12.618Z,95818.44
2023-04-25T09:32:22.107Z,95816.41
2023-04-25T09:33:30.069Z,95809.50
2023-04-25T09:34:40.299Z,95808.50
2023-04-25T09:35:43.975Z,95809.59
2023-04-25T09:36:47.410Z,95809.63
2023-04-25T09:37:49.072Z,95805.50
2023-04-25T09:38:50.783Z,95808.47
2023-04-25T09:39:55.552Z,95796.47
2023-04-25T09:41:02.106Z,95802.38
2023-04-25T09:42:04.725Z,95804.25
2023-04-25T09:43:10.849Z,95803.88
2023-04-25T09:44:14.364Z,95796.78
2023-04-25T09:45:16.181Z,95801.34
2023-04-25T09:46:21.531Z,95802.28
2023-04-25T09:47:25.392Z,95802.94
2023-04-25T09:48:28.855Z,95801.53
2023-04-25T09:49:30.409Z,95796.38
2023-04-25T09:50:31.980Z,95794.69
2023-04-25T09:51:36.744Z,95789.44
2023-04-25T09:52:38.305Z,95790.75
2023-04-25T09:53:44.934Z,95781.72
2023-04-25T09:54:47.708Z,95790.00
2023-04-25T09:55:49.479Z,95787.13
2023-04-25T09:58:26.068Z,95788.81
2023-04-25T09:59:29.470Z,95781.84
2023-04-25T10:00:31.966Z,95781.59
2023-04-25T10:01:34.085Z,95778.91
2023-04-25T10:02:36.933Z,95775.84
2023-04-25T10:03:46.307Z,95779.13
2023-04-25T10:04:53.975Z,95794.13
2023-04-25T10:05:57.493Z,95785.09
2023-04-25T10:07:00.557Z,95818.06
2023-04-25T10:08:05.412Z,95818.13
2023-04-25T10:09:08.908Z,95822.13
2023-04-25T10:10:13.817Z,95799.50
2023-04-25T10:11:16.941Z,95788.50
2023-04-25T10:12:19.602Z,95791.53
2023-04-25T10:13:21.853Z,95800.78
2023-04-25T10:14:24.924Z,95802.25
2023-04-25T10:15:26.997Z,95807.69
2023-04-25T10:16:29.802Z,95814.84
2023-04-25T10:17:32.682Z,95817.16
2023-04-25T10:18:34.404Z,95821.75
2023-04-25T10:19:36.298Z,95816.00
2023-04-25T10:20:38.349Z,95827.34
2023-04-25T10:21:51.120Z,95820.81
2023-04-25T10:22:57.352Z,95815.63
2023-04-25T10:23:59.270Z,95817.44
2023-04-25T10:25:04.806Z,95813.72
2023-04-25T10:26:08.554Z,95821.25
2023-04-25T10:27:10.737Z,95818.78
2023-04-25T10:28:12.346Z,95812.81
2023-04-25T10:29:22.290Z,95814.72
2023-04-25T10:30:23.910Z,95813.81
2023-04-25T10:31:26.010Z,95819.78
2023-04-25T10:32:28.287Z,95812.56
2023-04-25T10:33:36.052Z,95813.88
2023-04-25T10:34:48.264Z,95803.78
2023-04-25T10:35:50.305Z,95814.34
2023-04-25T10:36:53.927Z,95810.47
2023-04-25T10:37:59.523Z,95805.75
2023-04-25T10:39:10.008Z,95817.38
2023-04-25T10:40:12.350Z,95804.94
2023-04-25T10:41:14.882Z,95807.09
2023-04-25T10:42:16.505Z,95804.81
2023-04-25T10:43:40.943Z,95807.31
2023-04-25T10:45:03.856Z,95800.94
2023-04-25T10:46:19.815Z,95798.06
2023-04-25T10:47:36.809Z,95797.72
2023-04-25T10:48:38.427Z,95800.94
2023-04-25T10:49:43.769Z,95790.75
2023-04-25T10:50:45.380Z,95787.53
2023-04-25T10:51:55.388Z,95792.63
2023-04-25T10:53:15.435Z,95786.81
2023-04-25T10:54:19.018Z,95777.28
2023-04-25T10:55:21.195Z,95779.41
2023-04-25T10:56:26.022Z,95779.53
2023-04-25T10:57:31.608Z,95771.38
2023-04-25T10:58:33.414Z,95771.38
2023-04-25T10:59:35.031Z,95771.69
2023-04-25T11:00:53.161Z,95774.44
2023-04-25T11:01:58.579Z,95769.63
2023-04-25T11:03:01.142Z,95758.25
2023-04-25T11:04:03.496Z,95750.44
2023-04-25T11:05:05.861Z,95754.34
2023-04-25T11:06:20.184Z,95748.81
2023-04-25T11:07:34.914Z,95757.25
2023-04-25T11:08:50.167Z,95750.03
2023-04-25T11:09:52.368Z,95748.84
2023-04-25T11:10:53.935Z,95749.50
2023-04-25T11:11:56.558Z,95749.38
2023-04-25T11:12:59.295Z,95745.97
2023-04-25T11:14:01.234Z,95739.41
2023-04-25T11:15:05.528Z,95747.91
2023-04-25T11:16:13.330Z,95744.09
2023-04-25T11:17:19.586Z,95741.38
2023-04-25T11:18:21.667Z,95740.31
2023-04-25T11:19:24.424Z,95733.72
2023-04-25T11:20:29.225Z,95738.81
2023-04-25T11:21:33.153Z,95735.38
2023-04-25T11:22:34.777Z,95730.66
2023-04-25T11:23:37.540Z,95730.88
2023-04-25T11:24:39.205Z,95731.66
2023-04-25T11:25:40.818Z,95727.03
2023-04-25T11:26:43.602Z,95724.75
2023-04-25T11:27:56.986Z,95723.53
2023-04-25T11:29:03.884Z,95724.75
2023-04-25T11:30:13.492Z,95727.22
2023-04-25T11:31:15.600Z,95723.66
2023-04-25T11:32:20.597Z,95721.72
2023-04-25T11:33:28.279Z,95717.53
2023-04-25T11:34:34.188Z,95708.03
2023-04-25T11:35:36.119Z,95714.03
2023-04-25T11:36:39.108Z,95710.81
2023-04-25T11:37:41.215Z,95720.16
2023-04-25T11:38:43.000Z,95710.00
2023-04-25T11:39:47.112Z,95709.84
2023-04-25T11:40:53.109Z,95711.94
2023-04-25T11:41:55.606Z,95704.81
2023-04-25T11:42:57.179Z,95704.59
2023-04-25T11:43:58.929Z,95711.50
2023-04-25T11:45:01.296Z,95707.00
2023-04-25T11:46:08.465Z,95704.75
2023-04-25T11:47:10.151Z,95709.09
2023-04-25T11:48:11.867Z,95701.88
2023-04-25T11:49:19.249Z,95703.81
2023-04-25T11:50:21.121Z,95703.41
2023-04-25T11:51:22.741Z,95703.75
2023-04-25T11:52:24.308Z,95703.22
2023-04-25T11:53:25.958Z,95703.84
2023-04-25T11:54:27.475Z,95696.06
2023-04-25T11:55:31.390Z,95701.19
2023-04-25T11:56:33.625Z,95699.28
2023-04-25T11:57:35.410Z,95698.63
2023-04-25T11:59:04.499Z,95707.47
2023-04-25T12:00:19.124Z,95703.75
2023-04-25T12:01:44.747Z,95708.84
2023-04-25T12:02:59.092Z,95703.91
2023-04-25T12:04:18.653Z,95695.41
2023-04-25T12:05:35.929Z,95698.91
2023-04-25T12:06:41.981Z,95712.22
2023-04-25T12:07:43.830Z,95698.81
2023-04-25T12:09:05.245Z,95705.53
2023-04-25T12:10:12.465Z,95709.72
2023-04-25T12:11:23.074Z,95707.44
2023-04-25T12:12:33.163Z,95710.81
2023-04-25T12:13:34.684Z,95710.38
2023-04-25T12:14:37.018Z,95722.25
2023-04-25T12:15:42.079Z,95726.97
2023-04-25T12:16:48.056Z,95713.28
2023-04-25T12:17:51.788Z,95730.31
2023-04-25T12:18:54.341Z,95726.25
2023-04-25T12:19:56.018Z,95733.22
2023-04-25T12:20:57.659Z,95717.84